createdAt,value
2022-12-19T05:02:01.323Z,41.60
2022-12-19T05:04:29.945Z,26.80
2022-12-19T05:06:58.414Z,24.90
2022-12-19T05:09:27.893Z,24.50
2022-12-19T05:11:56.546Z,22.30
2022-12-19T05:14:25.459Z,25.80
2022-12-19T05:17:00.376Z,23.60
2022-12-19T05:19:30.770Z,26.80
2022-12-19T05:22:00.175Z,22.50
2022-12-19T05:24:30.298Z,30.10
2022-12-19T05:26:58.683Z,28.80
2022-12-19T05:29:27.020Z,26.50
2022-12-19T05:31:56.199Z,22.70
2022-12-19T05:34:26.242Z,24.80
2022-12-19T05:36:54.322Z,23.70
2022-12-19T05:39:23.247Z,21.70
2022-12-19T05:41:52.162Z,20.70
2022-12-19T05:44:20.910Z,27.30
2022-12-19T05:46:49.695Z,26.00
2022-12-19T05:49:18.868Z,22.00
2022-12-19T05:51:48.244Z,30.50
2022-12-19T05:54:17.355Z,61.20
2022-12-19T05:56:45.806Z,42.70
2022-12-19T05:59:14.587Z,34.30
2022-12-19T06:01:42.793Z,38.80
2022-12-19T06:04:11.707Z,33.20
2022-12-19T06:06:40.119Z,29.20
2022-12-19T06:09:08.852Z,43.80
2022-12-19T06:11:37.011Z,32.80
2022-12-19T06:14:08.424Z,32.40
2022-12-19T06:16:36.498Z,35.80
2022-12-19T06:19:04.566Z,27.70
2022-12-19T06:21:33.641Z,56.80
2022-12-19T06:24:02.101Z,35.60
2022-12-19T06:26:31.912Z,32.30
2022-12-19T06:29:00.198Z,34.00
2022-12-19T06:31:29.247Z,43.70
2022-12-19T06:33:57.547Z,25.80
2022-12-19T06:36:29.090Z,26.00
2022-12-19T06:38:58.832Z,23.90
2022-12-19T06:41:47.939Z,27.20
2022-12-19T06:44:18.354Z,27.60
2022-12-19T06:46:47.339Z,27.00
2022-12-19T06:49:17.309Z,39.30
2022-12-19T06:51:46.342Z,41.50
2022-12-19T06:54:16.610Z,27.90
2022-12-19T06:56:45.441Z,20.20
2022-12-19T06:59:16.620Z,28.30
2022-12-19T07:02:01.118Z,24.80
2022-12-19T07:04:46.108Z,39.70
2022-12-19T07:07:14.344Z,23.10
2022-12-19T07:09:43.305Z,32.30
2022-12-19T07:12:12.260Z,36.00
2022-12-19T07:14:40.376Z,24.90
2022-12-19T07:17:09.370Z,28.60
2022-12-19T07:19:38.104Z,26.70
2022-12-19T07:22:07.832Z,27.50
2022-12-19T07:24:37.538Z,24.50
2022-12-19T07:27:07.989Z,29.40
2022-12-19T07:29:36.252Z,31.30
2022-12-19T07:32:05.429Z,34.60
2022-12-19T07:34:34.616Z,39.90
2022-12-19T07:37:02.632Z,28.80
2022-12-19T07:39:30.902Z,24.20
2022-12-19T07:41:58.861Z,27.10
2022-12-19T07:44:40.584Z,31.80
2022-12-19T07:47:09.961Z,25.30
2022-12-19T07:49:38.826Z,22.10
2022-12-19T07:52:08.923Z,38.20
2022-12-19T07:54:37.926Z,35.10
2022-12-19T07:57:08.339Z,26.80
2022-12-19T07:59:39.313Z,26.30
2022-12-19T08:02:08.376Z,46.30
2022-12-19T08:04:36.839Z,24.50
2022-12-19T08:07:05.745Z,25.50
2022-12-19T08:09:33.991Z,23.70
2022-12-19T08:12:02.308Z,22.80
2022-12-19T08:14:31.345Z,22.70
2022-12-19T08:19:47.955Z,22.80
2022-12-19T08:22:17.183Z,19.90
2022-12-19T08:24:45.647Z,21.20
2022-12-19T08:27:16.020Z,22.30
2022-12-19T08:29:44.853Z,23.80
2022-12-19T08:32:20.449Z,21.80
2022-12-19T08:34:51.395Z,21.30
2022-12-19T08:37:19.576Z,22.70
2022-12-19T08:39:48.663Z,24.70
2022-12-19T08:42:18.143Z,23.00
2022-12-19T08:44:47.420Z,26.50
2022-12-19T08:47:16.887Z,21.70
2022-12-19T08:49:46.479Z,22.50
2022-12-19T08:52:17.027Z,21.60
2022-12-19T08:54:45.955Z,20.80
2022-12-19T08:57:15.270Z,22.40
2022-12-19T08:59:44.321Z,20.20
2022-12-19T09:02:14.883Z,22.40
2022-12-19T09:05:59.607Z,21.70
2022-12-19T09:07:35.335Z,20.30
2022-12-19T09:10:12.289Z,22.00
2022-12-19T09:12:42.263Z,22.10
2022-12-19T09:15:11.204Z,25.90
2022-12-19T09:17:40.984Z,24.70
2022-12-19T09:20:11.094Z,24.90
2022-12-19T09:22:40.866Z,26.00
2022-12-19T09:25:11.430Z,26.00
2022-12-19T09:28:17.501Z,27.80
2022-12-19T09:30:30.010Z,26.50
2022-12-19T09:33:00.489Z,25.60
2022-12-19T09:35:30.628Z,26.70
2022-12-19T09:38:00.646Z,24.40
2022-12-19T09:40:40.893Z,25.70
2022-12-19T09:43:41.237Z,27.50
2022-12-19T09:46:23.015Z,24.90
2022-12-19T09:48:56.819Z,29.70
2022-12-19T09:51:38.929Z,29.70
2022-12-19T09:54:33.752Z,27.50
2022-12-19T09:57:11.628Z,26.90
2022-12-19T09:59:51.501Z,27.00
2022-12-19T10:02:42.302Z,25.00
2022-12-19T10:05:34.939Z,23.30
2022-12-19T10:08:39.668Z,26.90
2022-12-19T10:12:42.462Z,23.90
2022-12-19T10:15:01.256Z,21.70
2022-12-19T10:18:09.036Z,21.60
2022-12-19T10:20:55.400Z,24.70
2022-12-19T10:24:02.194Z,22.30
2022-12-19T10:26:44.861Z,23.00
2022-12-19T10:29:44.904Z,2.10
2022-12-19T10:32:57.462Z,22.00
2022-12-19T10:35:34.570Z,26.60
2022-12-19T10:38:18.001Z,25.00
2022-12-19T10:40:54.395Z,22.50
2022-12-19T10:43:34.681Z,29.70
2022-12-19T10:46:18.918Z,24.70
2022-12-19T10:48:53.137Z,24.70
2022-12-19T10:51:30.142Z,22.40
2022-12-19T10:54:01.754Z,23.30
2022-12-19T10:56:37.572Z,27.50
2022-12-19T10:59:18.863Z,28.10
2022-12-19T11:01:49.340Z,24.90
2022-12-19T11:04:36.624Z,27.10
2022-12-19T11:07:05.883Z,23.90
2022-12-19T11:09:37.960Z,26.00
2022-12-19T11:16:20.082Z,28.10
2022-12-19T11:21:03.261Z,28.80
2022-12-19T11:29:14.931Z,24.80
2022-12-19T11:29:30.231Z,25.60
2022-12-19T11:29:30.747Z,22.40
2022-12-19T11:29:53.427Z,24.80
2022-12-19T11:32:41.153Z,26.80
2022-12-19T11:35:36.752Z,30.70
2022-12-19T11:38:14.809Z,25.40
2022-12-19T11:40:56.507Z,25.90
2022-12-19T11:43:54.779Z,29.50
2022-12-19T11:46:55.929Z,25.90
2022-12-19T11:49:41.740Z,23.10
2022-12-19T11:53:03.617Z,25.50
2022-12-19T11:55:11.830Z,23.80
2022-12-19T11:57:42.748Z,28.10
2022-12-19T12:00:22.153Z,26.40
2022-12-19T12:03:18.784Z,25.10
2022-12-19T12:05:49.818Z,25.60
2022-12-19T12:09:23.773Z,23.10
2022-12-19T12:14:02.072Z,22.50
2022-12-19T12:26:30.999Z,19.70
2022-12-19T12:31:15.523Z,26.20
2022-12-19T12:31:27.718Z,22.30
2022-12-19T12:31:51.157Z,27.10
2022-12-19T12:32:02.058Z,27.00
2022-12-19T12:32:04.003Z,24.90
2022-12-19T12:35:34.977Z,26.40
2022-12-19T12:37:47.835Z,24.90
2022-12-19T12:38:29.128Z,29.30
2022-12-19T12:41:07.717Z,28.10
2022-12-19T12:44:09.322Z,30.70
2022-12-19T12:46:48.721Z,27.00
2022-12-19T12:49:32.976Z,26.80
2022-12-19T12:52:04.803Z,31.50
2022-12-19T12:54:41.982Z,29.70
2022-12-19T12:57:36.085Z,25.40
2022-12-19T13:00:16.472Z,26.60
2022-12-19T13:03:06.061Z,30.60
2022-12-19T13:05:46.821Z,27.00
2022-12-19T13:08:26.565Z,28.20
2022-12-19T13:11:01.979Z,30.30
2022-12-19T13:13:54.093Z,28.20
2022-12-19T13:16:41.820Z,28.60
2022-12-19T13:19:24.102Z,35.60
2022-12-19T13:22:10.648Z,32.70
2022-12-19T13:24:47.396Z,40.60
2022-12-19T13:27:19.555Z,37.80
2022-12-19T13:29:55.041Z,34.90
2022-12-19T13:32:24.774Z,51.60
2022-12-19T13:36:04.149Z,48.30
2022-12-19T13:39:56.899Z,29.90
2022-12-19T13:41:50.768Z,34.00
2022-12-19T13:44:22.400Z,28.90
2022-12-19T13:46:51.317Z,34.80
2022-12-19T13:49:34.519Z,33.40
2022-12-19T13:52:06.015Z,26.80
2022-12-19T13:54:46.275Z,25.10
2022-12-19T13:57:30.933Z,27.20
2022-12-19T14:00:04.024Z,26.10
2022-12-19T14:02:46.322Z,28.30
2022-12-19T14:06:14.460Z,27.70
2022-12-19T14:08:26.131Z,26.20
2022-12-19T14:11:39.219Z,33.40
2022-12-19T14:14:27.472Z,30.90
2022-12-19T14:17:13.227Z,35.50
2022-12-19T14:19:47.888Z,32.30
2022-12-19T14:22:25.868Z,29.00
2022-12-19T14:25:33.112Z,29.90
2022-12-19T14:28:17.827Z,29.30
2022-12-19T14:30:56.497Z,34.40
2022-12-19T14:33:46.020Z,34.70
2022-12-19T14:36:33.748Z,35.90
2022-12-19T14:39:24.146Z,35.50
2022-12-19T14:42:31.769Z,37.70
2022-12-19T14:52:08.103Z,37.20
2022-12-19T14:54:05.398Z,34.00
2022-12-19T14:54:28.468Z,31.80
2022-12-19T14:57:25.395Z,33.40
2022-12-19T15:00:50.914Z,35.20
2022-12-19T15:03:34.734Z,29.30
2022-12-19T15:06:31.562Z,30.80
2022-12-19T15:11:08.239Z,30.20
2022-12-19T15:14:04.045Z,38.30
2022-12-19T15:15:22.297Z,31.20
2022-12-19T15:17:55.854Z,29.60
2022-12-19T15:20:24.027Z,28.80
2022-12-19T15:22:53.023Z,33.20
2022-12-19T15:25:53.086Z,28.30
2022-12-19T15:28:25.781Z,32.90
2022-12-19T15:31:05.809Z,30.40
2022-12-19T15:33:34.754Z,30.80
2022-12-19T15:36:03.895Z,32.20
2022-12-19T15:38:33.091Z,28.40
2022-12-19T15:41:02.242Z,28.20
2022-12-19T15:44:02.546Z,31.40
2022-12-19T15:46:19.860Z,29.80
2022-12-19T15:48:51.489Z,27.50
2022-12-19T15:51:20.000Z,28.00
2022-12-19T15:53:48.966Z,100.70
2022-12-19T15:56:32.655Z,90.90
2022-12-19T15:59:03.273Z,76.90
2022-12-19T16:01:33.902Z,50.50
2022-12-19T16:04:03.732Z,68.60
2022-12-19T16:06:32.639Z,51.50
2022-12-19T16:09:00.815Z,67.70
2022-12-19T16:11:29.791Z,114.30
2022-12-19T16:13:59.068Z,96.40
2022-12-19T16:16:28.226Z,52.00
2022-12-19T16:18:56.445Z,40.60
2022-12-19T16:21:33.702Z,55.80
2022-12-19T16:24:03.755Z,48.20
2022-12-19T16:26:35.680Z,66.80
2022-12-19T16:29:05.176Z,62.60
2022-12-19T16:31:33.979Z,43.10
2022-12-19T16:34:02.591Z,35.10
2022-12-19T16:36:31.841Z,51.90
2022-12-19T16:38:59.852Z,50.40
2022-12-19T16:41:28.553Z,35.00
2022-12-19T16:43:57.397Z,34.80
2022-12-19T16:46:31.104Z,43.20
2022-12-19T16:48:59.791Z,33.50
2022-12-19T16:51:28.111Z,32.30
2022-12-19T16:54:00.930Z,40.80
2022-12-19T16:56:38.654Z,46.50
2022-12-19T16:59:23.630Z,43.50
2022-12-19T17:01:52.471Z,43.20
2022-12-19T17:04:24.705Z,35.20
2022-12-19T17:06:54.523Z,31.00
2022-12-19T17:09:25.512Z,34.00
2022-12-19T17:12:00.662Z,33.80
2022-12-19T17:14:35.057Z,32.60
2022-12-19T17:17:04.588Z,38.00
2022-12-19T17:19:37.920Z,65.80
2022-12-19T17:22:17.515Z,45.60
2022-12-19T17:24:47.585Z,40.20
2022-12-19T17:27:17.985Z,38.60
2022-12-19T17:29:47.338Z,44.10
2022-12-19T17:32:23.567Z,52.40
2022-12-19T17:34:53.872Z,34.10
2022-12-19T17:37:23.401Z,50.30
2022-12-19T17:39:52.618Z,34.90
2022-12-19T17:42:28.731Z,60.60
2022-12-19T17:45:00.885Z,91.60
2022-12-19T17:47:30.511Z,57.10
2022-12-19T17:49:59.563Z,46.10
2022-12-19T17:52:29.299Z,42.80
2022-12-19T17:54:57.502Z,39.20
2022-12-19T17:57:27.503Z,59.20
2022-12-19T17:59:56.873Z,68.30
2022-12-19T18:02:27.170Z,45.30
2022-12-19T18:04:56.088Z,54.70
2022-12-19T18:07:24.754Z,43.70
2022-12-19T18:09:53.135Z,46.80
2022-12-19T18:12:21.397Z,55.70
2022-12-19T18:14:49.692Z,66.60
2022-12-19T18:17:25.970Z,45.10
2022-12-19T18:19:55.378Z,62.50
2022-12-19T18:22:24.122Z,40.70
2022-12-19T18:24:52.686Z,51.90
2022-12-19T18:27:21.249Z,53.80
2022-12-19T18:29:50.507Z,42.00
2022-12-19T18:32:20.832Z,47.80
2022-12-19T18:34:52.634Z,45.00
2022-12-19T18:37:21.779Z,50.00
2022-12-19T18:39:56.824Z,44.30
2022-12-19T18:42:25.507Z,40.00
2022-12-19T18:44:53.887Z,51.70
2022-12-19T18:47:23.692Z,51.40
2022-12-19T18:49:53.317Z,44.30
2022-12-19T18:52:22.627Z,44.90
2022-12-19T18:54:51.927Z,53.20
2022-12-19T18:57:20.499Z,44.00
2022-12-19T18:59:50.327Z,43.90
2022-12-19T19:02:26.007Z,44.90
2022-12-19T19:04:56.120Z,39.00
2022-12-19T19:07:24.597Z,34.70
2022-12-19T19:09:52.810Z,37.10
2022-12-19T19:12:44.319Z,38.00
2022-12-19T19:15:12.496Z,36.20
2022-12-19T19:17:42.454Z,38.50
2022-12-19T19:20:11.057Z,40.80
2022-12-19T19:22:39.346Z,49.90
2022-12-19T19:25:08.000Z,91.40
2022-12-19T19:27:37.670Z,48.30
2022-12-19T19:30:11.868Z,57.70
2022-12-19T19:32:52.177Z,102.00
2022-12-19T19:35:22.401Z,96.60
2022-12-19T19:37:59.479Z,53.20
2022-12-19T19:40:28.313Z,50.20
2022-12-19T19:42:56.594Z,76.50
2022-12-19T19:45:24.919Z,118.60
2022-12-19T19:47:54.758Z,57.90
2022-12-19T19:50:24.975Z,61.90
2022-12-19T19:52:52.946Z,65.00
2022-12-19T19:55:20.920Z,134.80
2022-12-19T19:57:49.161Z,72.00
2022-12-19T20:00:17.925Z,74.60
2022-12-19T20:02:46.218Z,107.10
2022-12-19T20:05:15.635Z,124.70
2022-12-19T20:07:45.595Z,67.80
2022-12-19T20:10:14.280Z,74.50
2022-12-19T20:12:42.499Z,82.80
2022-12-19T20:15:12.205Z,59.40
2022-12-19T20:17:40.985Z,73.40
2022-12-19T20:20:09.606Z,66.80
2022-12-19T20:22:37.952Z,51.20
2022-12-19T20:25:06.255Z,50.50
2022-12-19T20:27:35.354Z,46.30
2022-12-19T20:30:06.186Z,89.20
2022-12-19T20:32:37.248Z,54.20
2022-12-19T20:35:14.739Z,46.70
2022-12-19T20:37:48.886Z,44.30
2022-12-19T20:40:19.584Z,42.00
2022-12-19T20:42:48.619Z,40.30
2022-12-19T20:45:16.909Z,41.20
2022-12-19T20:47:45.956Z,42.60
2022-12-19T20:50:18.868Z,40.80
2022-12-19T20:52:50.702Z,42.80
2022-12-19T20:55:18.908Z,45.10
2022-12-19T20:57:47.220Z,45.50
2022-12-19T21:00:16.017Z,46.50
2022-12-19T21:03:25.815Z,37.40
2022-12-19T21:05:33.167Z,41.80
2022-12-19T21:08:01.545Z,38.10
2022-12-19T21:10:29.746Z,37.00
2022-12-19T21:12:57.855Z,41.50
2022-12-19T21:15:26.039Z,46.10
2022-12-19T21:17:54.356Z,48.60
2022-12-19T21:20:22.558Z,46.70
2022-12-19T21:22:51.020Z,39.30
2022-12-19T21:25:20.022Z,35.80
2022-12-19T21:27:48.541Z,33.50
2022-12-19T21:30:16.934Z,36.70
2022-12-19T21:32:45.966Z,40.30
2022-12-19T21:35:14.407Z,35.20
2022-12-19T21:37:44.467Z,35.40
2022-12-19T21:40:13.433Z,41.80
2022-12-19T21:42:42.126Z,47.80
2022-12-19T21:45:11.645Z,78.70
2022-12-19T21:47:42.102Z,95.80
2022-12-19T21:50:13.430Z,47.50
2022-12-19T21:52:42.085Z,45.70
2022-12-19T21:55:10.728Z,33.80
2022-12-19T21:57:41.594Z,36.20
2022-12-19T22:00:12.981Z,35.10
2022-12-19T22:03:01.531Z,39.60
2022-12-19T22:05:30.000Z,43.00
2022-12-19T22:07:58.207Z,39.10
2022-12-19T22:10:26.875Z,47.40
2022-12-19T22:12:55.157Z,44.60
2022-12-19T22:15:23.203Z,45.30
2022-12-19T22:17:51.382Z,112.60
2022-12-19T22:20:19.856Z,69.70
2022-12-19T22:22:48.018Z,40.20
2022-12-19T22:25:16.824Z,37.90
2022-12-19T22:27:45.008Z,37.10
2022-12-19T22:30:13.366Z,38.80
2022-12-19T22:32:42.804Z,46.30
2022-12-19T22:35:11.723Z,36.50
2022-12-19T22:37:40.226Z,74.00
2022-12-19T22:40:08.951Z,86.40
2022-12-19T22:42:37.634Z,69.10
2022-12-19T22:45:06.787Z,35.30
2022-12-19T22:47:35.894Z,43.30
2022-12-19T22:50:04.474Z,42.60
2022-12-19T22:52:32.918Z,42.60
2022-12-19T22:55:01.660Z,32.10
2022-12-19T22:57:30.502Z,46.00
2022-12-19T22:59:58.555Z,40.00
2022-12-19T23:02:26.854Z,54.40
2022-12-19T23:04:55.646Z,49.00
2022-12-19T23:07:24.014Z,44.90
2022-12-19T23:09:52.125Z,36.90
2022-12-19T23:12:20.492Z,38.20
2022-12-19T23:14:48.862Z,35.60
2022-12-19T23:17:17.861Z,36.50
2022-12-19T23:19:46.804Z,31.30
2022-12-19T23:22:15.946Z,37.70
2022-12-19T23:24:45.289Z,48.30
2022-12-19T23:27:14.734Z,35.00
2022-12-19T23:29:46.236Z,38.50
2022-12-19T23:32:15.296Z,41.10
2022-12-19T23:34:44.302Z,48.00
2022-12-19T23:37:13.256Z,32.70
2022-12-19T23:39:42.040Z,28.70
2022-12-19T23:42:11.051Z,23.50
2022-12-19T23:44:41.147Z,26.20
2022-12-19T23:47:10.272Z,24.80
2022-12-19T23:49:39.700Z,26.50
2022-12-19T23:52:08.715Z,25.20
2022-12-19T23:54:37.604Z,19.80
2022-12-19T23:57:06.704Z,21.90
2022-12-19T23:59:35.888Z,21.50
